createdAt,value
2023-01-25T00:01:06.452Z,11.20
2023-01-25T00:03:33.247Z,11.00
2023-01-25T00:06:01.698Z,13.43
2023-01-25T00:08:28.835Z,11.25
2023-01-25T00:10:57.624Z,10.93
2023-01-25T00:13:25.329Z,10.75
2023-01-25T00:15:52.029Z,10.23
2023-01-25T00:18:18.831Z,10.32
2023-01-25T00:20:46.309Z,10.27
2023-01-25T00:23:13.131Z,10.57
2023-01-25T00:25:39.918Z,10.50
2023-01-25T00:28:06.742Z,11.38
2023-01-25T00:30:33.614Z,10.10
2023-01-25T00:33:16.550Z,10.65
2023-01-25T00:35:45.425Z,10.60
2023-01-25T00:38:33.654Z,11.07
2023-01-25T00:41:00.560Z,10.93
2023-01-25T00:43:27.346Z,10.27
2023-01-25T00:46:01.347Z,10.45
2023-01-25T00:50:54.791Z,9.73
2023-01-25T00:53:21.597Z,10.45
2023-01-25T00:55:54.603Z,10.15
2023-01-25T00:58:21.542Z,10.80
2023-01-25T01:00:48.422Z,11.20
2023-01-25T01:03:15.991Z,10.77
2023-01-25T01:05:42.782Z,10.52
2023-01-25T01:08:09.553Z,10.70
2023-01-25T01:10:36.543Z,10.98
2023-01-25T01:13:03.351Z,10.98
2023-01-25T01:15:30.158Z,10.93
2023-01-25T01:17:56.926Z,11.55
2023-01-25T01:20:23.694Z,11.65
2023-01-25T01:22:55.309Z,11.63
2023-01-25T01:25:22.172Z,10.77
2023-01-25T01:27:48.985Z,11.63
2023-01-25T01:30:16.254Z,10.82
2023-01-25T01:32:43.107Z,11.10
2023-01-25T01:35:10.284Z,11.88
2023-01-25T01:37:37.164Z,12.45
2023-01-25T01:40:04.127Z,11.75
2023-01-25T01:42:30.876Z,11.38
2023-01-25T01:44:57.629Z,12.00
2023-01-25T01:47:45.873Z,12.63
2023-01-25T01:50:23.568Z,12.13
2023-01-25T01:52:51.003Z,11.68
2023-01-25T01:55:24.080Z,11.88
2023-01-25T01:57:58.073Z,11.17
2023-01-25T02:00:34.288Z,11.50
2023-01-25T02:03:01.673Z,12.18
2023-01-25T02:05:47.129Z,12.80
2023-01-25T02:08:15.642Z,11.85
2023-01-25T02:10:44.608Z,12.02
2023-01-25T02:13:11.463Z,12.35
2023-01-25T02:15:49.677Z,12.15
2023-01-25T02:18:18.784Z,11.55
2023-01-25T02:20:50.384Z,10.85
2023-01-25T02:23:51.343Z,11.40
2023-01-25T02:26:21.827Z,11.07
2023-01-25T02:28:56.211Z,11.18
2023-01-25T02:31:23.176Z,11.77
2023-01-25T02:33:50.105Z,11.75
2023-01-25T02:36:25.702Z,11.52
2023-01-25T02:39:02.454Z,12.45
2023-01-25T02:41:37.683Z,12.00
2023-01-25T02:44:10.931Z,11.82
2023-01-25T02:46:40.588Z,11.48
2023-01-25T02:49:09.595Z,11.35
2023-01-25T02:51:41.069Z,11.80
2023-01-25T02:54:10.810Z,11.15
2023-01-25T02:56:38.547Z,11.75
2023-01-25T02:59:05.827Z,12.05
2023-01-25T03:01:38.878Z,11.77
2023-01-25T03:04:06.648Z,13.00
2023-01-25T03:06:34.870Z,12.93
2023-01-25T03:09:04.209Z,12.80
2023-01-25T03:11:31.129Z,13.13
2023-01-25T03:13:58.172Z,13.43
2023-01-25T03:16:25.142Z,12.88
2023-01-25T03:18:55.896Z,12.27
2023-01-25T03:21:23.760Z,13.55
2023-01-25T03:23:58.848Z,13.68
2023-01-25T03:26:28.476Z,13.57
2023-01-25T03:28:55.397Z,12.82
2023-01-25T03:31:22.298Z,13.55
2023-01-25T03:33:49.823Z,12.10
2023-01-25T03:36:16.728Z,12.90
2023-01-25T03:38:43.562Z,13.38
2023-01-25T03:41:12.281Z,13.13
2023-01-25T03:43:39.601Z,13.30
2023-01-25T03:46:06.644Z,12.93
2023-01-25T03:48:33.380Z,14.13
2023-01-25T03:51:00.777Z,13.52
2023-01-25T03:53:30.927Z,13.13
2023-01-25T03:56:08.827Z,13.27
2023-01-25T03:58:38.406Z,13.65
2023-01-25T04:01:07.707Z,12.57
2023-01-25T04:03:34.953Z,13.70
2023-01-25T04:06:03.002Z,12.90
2023-01-25T04:08:30.755Z,12.68
2023-01-25T04:11:03.492Z,13.15
2023-01-25T04:13:30.527Z,13.40
2023-01-25T04:15:57.491Z,12.75
2023-01-25T04:18:24.275Z,13.95
2023-01-25T04:20:56.674Z,12.82
2023-01-25T04:23:26.027Z,11.65
2023-01-25T04:26:08.259Z,12.05
2023-01-25T04:28:35.971Z,11.13
2023-01-25T04:31:03.686Z,12.00
2023-01-25T04:33:30.678Z,13.23
2023-01-25T04:35:57.605Z,11.88
2023-01-25T04:38:24.520Z,13.45
2023-01-25T04:40:52.460Z,12.70
2023-01-25T04:43:20.886Z,11.90
2023-01-25T04:45:47.819Z,12.18
2023-01-25T04:48:15.240Z,11.80
2023-01-25T04:50:44.160Z,11.27
2023-01-25T04:53:12.588Z,10.60
2023-01-25T04:55:39.911Z,11.55
2023-01-25T04:58:07.112Z,11.63
2023-01-25T05:00:34.088Z,9.35
2023-01-25T05:03:00.946Z,8.95
2023-01-25T05:05:27.750Z,9.55
2023-01-25T05:07:54.559Z,8.95
2023-01-25T05:10:21.358Z,8.73
2023-01-25T05:12:48.208Z,9.20
2023-01-25T05:15:15.896Z,9.45
2023-01-25T05:17:42.615Z,9.15
2023-01-25T05:20:10.524Z,8.98
2023-01-25T05:22:37.305Z,9.73
2023-01-25T05:25:06.350Z,9.15
2023-01-25T05:27:33.182Z,9.13
2023-01-25T05:30:00.067Z,9.50
2023-01-25T05:32:26.873Z,9.05
2023-01-25T05:34:53.657Z,9.15
2023-01-25T05:37:21.498Z,9.45
2023-01-25T05:39:48.663Z,10.10
2023-01-25T05:42:18.673Z,8.88
2023-01-25T05:44:47.537Z,8.52
2023-01-25T05:47:17.794Z,8.45
2023-01-25T05:49:45.289Z,8.75
2023-01-25T05:52:17.348Z,8.90
2023-01-25T05:54:44.570Z,9.07
2023-01-25T05:57:13.298Z,9.25
2023-01-25T05:59:40.155Z,9.15
2023-01-25T06:02:07.056Z,9.30
2023-01-25T06:04:33.892Z,8.80
2023-01-25T06:07:00.641Z,8.63
2023-01-25T06:09:27.407Z,8.50
2023-01-25T06:11:54.187Z,8.15
2023-01-25T06:14:20.962Z,8.38
2023-01-25T06:16:47.714Z,7.57
2023-01-25T06:19:14.626Z,7.72
2023-01-25T06:21:41.464Z,8.05
2023-01-25T06:24:08.559Z,8.38
2023-01-25T06:26:35.554Z,7.35
2023-01-25T06:29:05.279Z,7.32
2023-01-25T06:31:32.090Z,8.10
2023-01-25T06:34:01.087Z,7.47
2023-01-25T06:36:28.011Z,8.32
2023-01-25T06:38:54.736Z,6.95
2023-01-25T06:41:22.702Z,7.30
2023-01-25T06:43:51.499Z,7.10
2023-01-25T06:46:19.641Z,6.82
2023-01-25T06:48:46.437Z,7.25
2023-01-25T06:51:15.383Z,7.72
2023-01-25T06:53:45.603Z,7.60
2023-01-25T06:56:19.593Z,7.20
2023-01-25T07:01:26.960Z,7.78
2023-01-25T07:03:57.408Z,8.90
2023-01-25T07:06:26.012Z,8.40
2023-01-25T07:08:52.916Z,8.63
2023-01-25T07:11:19.645Z,8.45
2023-01-25T07:13:47.732Z,8.57
2023-01-25T07:16:18.788Z,8.65
2023-01-25T07:18:46.119Z,8.77
2023-01-25T07:21:21.752Z,8.98
2023-01-25T07:23:50.411Z,9.05
2023-01-25T07:26:25.949Z,9.10
2023-01-25T07:28:54.411Z,10.50
2023-01-25T07:31:21.630Z,9.70
2023-01-25T07:33:54.156Z,10.18
2023-01-25T07:36:22.419Z,10.68
2023-01-25T07:38:53.286Z,11.15
2023-01-25T07:41:20.070Z,10.98
2023-01-25T07:43:47.119Z,11.93
2023-01-25T07:46:14.375Z,11.80
2023-01-25T07:48:47.351Z,12.88
2023-01-25T07:51:30.091Z,11.73
2023-01-25T07:54:05.141Z,13.02
2023-01-25T07:56:37.663Z,14.00
2023-01-25T07:59:04.898Z,14.48
2023-01-25T08:01:34.106Z,15.73
2023-01-25T08:04:03.175Z,14.77
2023-01-25T08:06:39.010Z,15.85
2023-01-25T08:09:14.777Z,16.58
2023-01-25T08:11:42.939Z,16.23
2023-01-25T08:14:11.333Z,16.33
2023-01-25T08:16:38.102Z,21.27
2023-01-25T08:19:05.484Z,18.73
2023-01-25T08:21:34.810Z,18.38
2023-01-25T08:24:05.608Z,17.05
2023-01-25T08:26:33.283Z,17.45
2023-01-25T08:29:00.220Z,16.33
2023-01-25T08:31:31.273Z,16.10
2023-01-25T08:33:58.980Z,15.70
2023-01-25T08:36:27.935Z,15.18
2023-01-25T08:39:00.026Z,15.70
2023-01-25T08:41:29.078Z,15.10
2023-01-25T08:43:57.016Z,14.88
2023-01-25T08:46:27.985Z,13.25
2023-01-25T08:48:57.566Z,12.80
2023-01-25T08:51:25.748Z,12.52
2023-01-25T08:53:53.896Z,11.15
2023-01-25T08:56:21.439Z,11.65
2023-01-25T08:58:50.643Z,12.25
2023-01-25T09:01:20.359Z,13.75
2023-01-25T09:03:50.594Z,14.85
2023-01-25T09:06:19.630Z,13.30
2023-01-25T09:08:47.080Z,13.20
2023-01-25T09:11:21.696Z,12.63
2023-01-25T09:13:49.248Z,11.82
2023-01-25T09:16:30.604Z,12.43
2023-01-25T09:19:01.725Z,12.48
2023-01-25T09:21:29.615Z,12.32
2023-01-25T09:24:06.088Z,13.48
2023-01-25T09:26:40.704Z,11.98
2023-01-25T09:29:09.363Z,12.75
2023-01-25T09:31:43.944Z,11.15
2023-01-25T09:34:14.052Z,11.48
2023-01-25T09:36:40.795Z,12.18
2023-01-25T09:39:09.247Z,12.73
2023-01-25T09:42:14.058Z,12.65
2023-01-25T09:45:11.679Z,13.18
2023-01-25T09:48:31.832Z,10.95
2023-01-25T09:51:11.181Z,11.23
2023-01-25T09:53:47.377Z,12.18
2023-01-25T09:56:27.759Z,12.45
2023-01-25T09:59:03.331Z,11.77
2023-01-25T10:01:55.711Z,12.20
2023-01-25T10:04:39.272Z,11.90
2023-01-25T10:07:38.532Z,11.52
2023-01-25T10:10:16.262Z,10.90
2023-01-25T10:12:43.009Z,12.35
2023-01-25T10:15:19.561Z,13.98
2023-01-25T10:17:58.318Z,12.18
2023-01-25T10:20:47.280Z,12.95
2023-01-25T10:23:57.225Z,13.23
2023-01-25T10:26:33.202Z,12.35
2023-01-25T10:29:21.720Z,13.07
2023-01-25T10:31:53.428Z,13.73
2023-01-25T10:34:26.112Z,14.15
2023-01-25T10:37:01.850Z,12.60
2023-01-25T10:39:32.644Z,12.70
2023-01-25T10:42:04.772Z,12.05
2023-01-25T10:44:36.981Z,11.15
2023-01-25T10:47:27.319Z,12.52
2023-01-25T10:49:59.170Z,11.57
2023-01-25T10:52:32.807Z,11.98
2023-01-25T10:55:15.746Z,12.52
2023-01-25T10:57:51.057Z,12.25
2023-01-25T11:00:37.909Z,11.85
2023-01-25T11:03:05.926Z,12.50
2023-01-25T11:05:38.156Z,12.38
2023-01-25T11:08:32.649Z,12.40
2023-01-25T11:11:06.563Z,12.10
2023-01-25T11:16:01.402Z,12.13
2023-01-25T11:18:33.857Z,13.23
2023-01-25T11:21:22.108Z,12.55
2023-01-25T11:24:17.439Z,12.93
2023-01-25T11:26:46.751Z,12.80
2023-01-25T11:29:20.299Z,13.32
2023-01-25T11:31:55.523Z,14.02
2023-01-25T11:34:27.331Z,13.90
2023-01-25T11:37:18.948Z,13.52
2023-01-25T11:40:34.128Z,14.23
2023-01-25T11:46:18.923Z,13.38
2023-01-25T11:49:25.525Z,13.95
2023-01-25T11:52:08.898Z,14.05
2023-01-25T11:54:49.808Z,13.43
2023-01-25T11:57:41.181Z,13.93
2023-01-25T12:00:26.687Z,14.40
2023-01-25T12:03:51.896Z,15.75
2023-01-25T12:07:03.952Z,14.18
2023-01-25T12:09:58.244Z,15.68
2023-01-25T12:12:30.599Z,16.75
2023-01-25T12:15:18.773Z,16.88
2023-01-25T12:18:04.548Z,15.32
2023-01-25T12:21:08.255Z,16.23
2023-01-25T12:23:57.716Z,15.90
2023-01-25T12:26:40.762Z,14.75
2023-01-25T12:29:20.997Z,16.13
2023-01-25T12:32:03.878Z,13.85
2023-01-25T12:34:39.674Z,15.70
2023-01-25T12:37:20.278Z,16.10
2023-01-25T12:40:02.602Z,15.73
2023-01-25T12:42:40.198Z,14.85
2023-01-25T12:45:21.999Z,13.88
2023-01-25T12:48:01.248Z,15.15
2023-01-25T12:50:38.686Z,15.25
2023-01-25T12:53:24.724Z,14.55
2023-01-25T12:55:54.338Z,15.65
2023-01-25T12:58:49.547Z,14.52
2023-01-25T13:01:35.998Z,15.18
2023-01-25T13:04:35.117Z,16.05
2023-01-25T13:07:30.574Z,16.45
2023-01-25T13:10:17.758Z,15.35
2023-01-25T13:13:05.526Z,15.48
2023-01-25T13:15:41.781Z,16.10
2023-01-25T13:18:31.022Z,16.33
2023-01-25T13:21:01.477Z,15.93
2023-01-25T13:23:43.784Z,17.23
2023-01-25T13:26:23.958Z,16.80
2023-01-25T13:28:59.581Z,15.88
2023-01-25T13:31:51.106Z,15.60
2023-01-25T13:34:38.981Z,15.93
2023-01-25T13:37:30.197Z,15.43
2023-01-25T13:40:37.843Z,15.80
2023-01-25T13:43:19.005Z,14.00
2023-01-25T13:45:51.025Z,14.15
2023-01-25T13:48:22.297Z,14.27
2023-01-25T13:50:54.599Z,13.23
2023-01-25T13:53:26.626Z,14.65
2023-01-25T13:55:57.721Z,12.90
2023-01-25T13:58:46.158Z,13.85
2023-01-25T14:01:20.074Z,13.50
2023-01-25T14:06:40.383Z,12.68
2023-01-25T14:09:20.981Z,12.55
2023-01-25T14:11:56.463Z,13.77
2023-01-25T14:14:33.053Z,13.93
2023-01-25T14:17:17.902Z,12.75
2023-01-25T14:19:51.662Z,13.43
2023-01-25T14:22:28.175Z,14.20
2023-01-25T14:25:09.601Z,14.07
2023-01-25T14:27:43.005Z,14.68
2023-01-25T14:30:30.750Z,13.95
2023-01-25T14:33:15.988Z,13.40
2023-01-25T14:35:55.625Z,14.00
2023-01-25T14:38:26.280Z,13.30
2023-01-25T14:40:58.690Z,14.05
2023-01-25T14:43:26.845Z,12.10
2023-01-25T14:45:53.745Z,12.25
2023-01-25T14:48:41.872Z,11.50
2023-01-25T14:51:21.493Z,12.43
2023-01-25T14:53:56.865Z,13.02
2023-01-25T14:56:31.331Z,11.18
2023-01-25T14:59:00.033Z,11.68
2023-01-25T15:01:41.045Z,11.88
2023-01-25T15:04:13.244Z,11.88
2023-01-25T15:06:50.234Z,12.00
2023-01-25T15:09:41.312Z,12.98
2023-01-25T15:12:16.833Z,12.77
2023-01-25T15:14:53.561Z,12.63
2023-01-25T15:17:47.645Z,13.25
2023-01-25T15:20:32.648Z,12.40
2023-01-25T15:23:26.702Z,12.20
2023-01-25T15:25:59.362Z,11.40
2023-01-25T15:28:34.512Z,11.20
2023-01-25T15:31:04.200Z,10.68
2023-01-25T15:33:32.723Z,11.93
2023-01-25T15:35:59.517Z,12.40
2023-01-25T15:38:26.467Z,12.27
2023-01-25T15:40:53.329Z,11.23
2023-01-25T15:43:20.503Z,14.07
2023-01-25T15:45:50.604Z,13.10
2023-01-25T15:48:27.444Z,13.05
2023-01-25T15:50:55.563Z,12.63
2023-01-25T15:53:22.315Z,12.02
2023-01-25T15:55:57.317Z,13.23
2023-01-25T15:58:35.415Z,13.02
2023-01-25T16:01:02.989Z,12.80
2023-01-25T16:03:30.648Z,13.05
2023-01-25T16:06:02.380Z,12.80
2023-01-25T16:08:29.696Z,12.77
2023-01-25T16:10:57.354Z,12.30
2023-01-25T16:13:25.417Z,13.30
2023-01-25T16:15:56.461Z,12.75
2023-01-25T16:18:23.443Z,13.65
2023-01-25T16:20:50.491Z,13.45
2023-01-25T16:23:17.227Z,13.57
2023-01-25T16:25:48.262Z,13.27
2023-01-25T16:28:16.309Z,13.20
2023-01-25T16:30:47.073Z,12.20
2023-01-25T16:33:13.944Z,12.48
2023-01-25T16:35:40.725Z,12.07
2023-01-25T16:38:11.853Z,12.88
2023-01-25T16:40:39.764Z,11.68
2023-01-25T16:43:06.764Z,11.05
2023-01-25T16:45:33.553Z,11.23
2023-01-25T16:48:01.853Z,11.32
2023-01-25T16:50:28.839Z,11.55
2023-01-25T16:52:56.240Z,11.40
2023-01-25T16:55:22.981Z,10.55
2023-01-25T16:57:51.283Z,10.15
2023-01-25T17:00:18.645Z,11.65
2023-01-25T17:02:58.148Z,10.95
2023-01-25T17:05:33.540Z,11.15
2023-01-25T17:08:00.389Z,11.60
2023-01-25T17:10:27.200Z,10.90
2023-01-25T17:12:53.925Z,11.02
2023-01-25T17:15:20.679Z,11.05
2023-01-25T17:17:47.414Z,11.63
2023-01-25T17:20:14.824Z,12.18
2023-01-25T17:22:42.461Z,11.75
2023-01-25T17:25:09.316Z,10.77
2023-01-25T17:27:36.030Z,9.93
2023-01-25T17:30:03.044Z,9.65
2023-01-25T17:32:29.860Z,10.30
2023-01-25T17:34:59.046Z,9.63
2023-01-25T17:37:26.010Z,10.52
2023-01-25T17:39:53.514Z,10.68
2023-01-25T17:42:22.035Z,10.60
2023-01-25T17:44:48.810Z,12.25
2023-01-25T17:47:15.536Z,12.02
2023-01-25T17:49:42.283Z,10.63
2023-01-25T17:52:09.245Z,11.68
2023-01-25T17:54:36.269Z,11.68
2023-01-25T17:57:03.065Z,10.27
2023-01-25T17:59:29.800Z,11.77
2023-01-25T18:01:56.758Z,11.13
2023-01-25T18:04:23.548Z,10.38
2023-01-25T18:06:50.257Z,11.52
2023-01-25T18:09:17.044Z,10.52
2023-01-25T18:11:43.800Z,11.60
2023-01-25T18:14:16.629Z,12.30
2023-01-25T18:16:44.475Z,11.70
2023-01-25T18:19:12.126Z,10.38
2023-01-25T18:21:40.603Z,9.45
2023-01-25T18:24:26.086Z,9.45
2023-01-25T18:27:00.184Z,10.55
2023-01-25T18:29:46.763Z,11.60
2023-01-25T18:32:15.340Z,9.73
2023-01-25T18:34:42.400Z,11.45
2023-01-25T18:37:17.861Z,12.07
2023-01-25T18:39:47.044Z,11.63
2023-01-25T18:42:13.907Z,11.65
2023-01-25T18:44:40.769Z,11.65
2023-01-25T18:47:10.105Z,10.93
2023-01-25T18:49:36.869Z,11.07
2023-01-25T18:52:11.346Z,10.75
2023-01-25T18:54:38.935Z,10.10
2023-01-25T18:57:06.768Z,10.70
2023-01-25T18:59:33.589Z,10.88
2023-01-25T19:02:00.350Z,11.82
2023-01-25T19:04:27.579Z,12.35
2023-01-25T19:06:57.423Z,11.43
2023-01-25T19:09:25.432Z,11.57
2023-01-25T19:11:52.357Z,10.73
2023-01-25T19:14:19.220Z,10.40
2023-01-25T19:16:46.277Z,11.10
2023-01-25T19:19:13.350Z,9.85
2023-01-25T19:21:40.605Z,11.32
2023-01-25T19:24:18.704Z,11.45
2023-01-25T19:26:47.281Z,12.60
2023-01-25T19:29:15.152Z,11.50
2023-01-25T19:31:42.139Z,11.27
2023-01-25T19:34:08.989Z,11.07
2023-01-25T19:36:38.793Z,11.60
2023-01-25T19:39:10.068Z,11.38
2023-01-25T19:41:38.659Z,9.52
2023-01-25T19:44:06.685Z,9.88
2023-01-25T19:46:37.351Z,10.18
2023-01-25T19:49:07.944Z,10.27
2023-01-25T19:51:39.683Z,9.18
2023-01-25T19:54:15.600Z,8.90
2023-01-25T19:56:48.488Z,9.85
2023-01-25T19:59:19.493Z,9.68
2023-01-25T20:01:46.935Z,10.27
2023-01-25T20:04:19.755Z,9.70
2023-01-25T20:06:47.009Z,9.75
2023-01-25T20:09:15.948Z,10.82
2023-01-25T20:11:43.203Z,10.32
2023-01-25T20:14:12.567Z,9.63
2023-01-25T20:16:39.556Z,9.73
2023-01-25T20:19:06.434Z,10.57
2023-01-25T20:21:33.771Z,9.98
2023-01-25T20:24:05.905Z,10.13
2023-01-25T20:26:39.304Z,8.95
2023-01-25T20:29:07.428Z,8.93
2023-01-25T20:31:46.646Z,8.73
2023-01-25T20:34:17.648Z,9.18
2023-01-25T20:36:46.020Z,9.50
2023-01-25T20:39:16.516Z,10.40
2023-01-25T20:41:44.060Z,9.98
2023-01-25T20:44:14.682Z,10.57
2023-01-25T20:46:43.034Z,10.25
2023-01-25T20:49:17.443Z,9.30
2023-01-25T20:51:45.613Z,10.63
2023-01-25T20:54:14.688Z,11.45
2023-01-25T20:56:42.851Z,10.25
2023-01-25T20:59:09.883Z,9.48
2023-01-25T21:01:37.330Z,9.15
2023-01-25T21:04:07.506Z,9.75
2023-01-25T21:06:35.232Z,9.65
2023-01-25T21:09:03.567Z,9.48
2023-01-25T21:11:30.512Z,9.02
2023-01-25T21:13:58.376Z,8.52
2023-01-25T21:16:25.378Z,8.60
2023-01-25T21:18:58.474Z,8.98
2023-01-25T21:21:30.625Z,7.97
2023-01-25T21:24:00.017Z,8.25
2023-01-25T21:26:33.566Z,8.35
2023-01-25T21:29:01.988Z,8.10
2023-01-25T21:31:32.831Z,8.15
2023-01-25T21:34:00.734Z,8.57
2023-01-25T21:36:27.876Z,9.23
2023-01-25T21:38:56.105Z,9.02
2023-01-25T21:41:26.414Z,9.55
2023-01-25T21:44:14.651Z,8.80
2023-01-25T21:46:46.719Z,9.32
2023-01-25T21:49:41.372Z,8.18
2023-01-25T21:52:08.097Z,9.18
2023-01-25T21:54:37.038Z,9.23
2023-01-25T21:57:08.463Z,9.90
2023-01-25T21:59:40.721Z,9.05
2023-01-25T22:02:13.936Z,8.60
2023-01-25T22:04:41.049Z,8.57
2023-01-25T22:07:09.045Z,9.23
2023-01-25T22:09:36.193Z,8.90
2023-01-25T22:12:03.107Z,9.52
2023-01-25T22:14:29.879Z,8.18
2023-01-25T22:16:56.685Z,8.60
2023-01-25T22:19:23.510Z,8.30
2023-01-25T22:21:50.230Z,8.15
2023-01-25T22:24:17.478Z,8.38
2023-01-25T22:27:02.453Z,8.15
2023-01-25T22:29:29.909Z,8.77
2023-01-25T22:31:57.070Z,8.38
2023-01-25T22:34:24.022Z,8.88
2023-01-25T22:36:50.837Z,8.80
2023-01-25T22:39:17.555Z,9.77
2023-01-25T22:41:44.315Z,9.20
2023-01-25T22:44:11.386Z,9.63
2023-01-25T22:46:38.157Z,9.68
2023-01-25T22:49:04.948Z,9.68
2023-01-25T22:51:32.274Z,10.02
2023-01-25T22:54:00.145Z,9.80
2023-01-25T22:56:31.945Z,10.25
2023-01-25T22:59:01.493Z,9.10
2023-01-25T23:01:34.413Z,10.07
2023-01-25T23:04:02.444Z,9.30
2023-01-25T23:06:34.549Z,9.50
2023-01-25T23:09:04.882Z,9.40
2023-01-25T23:11:37.193Z,8.95
2023-01-25T23:14:26.760Z,9.43
2023-01-25T23:17:14.072Z,8.13
2023-01-25T23:19:40.966Z,9.65
2023-01-25T23:22:07.697Z,8.35
2023-01-25T23:24:34.461Z,9.32
2023-01-25T23:27:01.215Z,9.15
2023-01-25T23:29:27.971Z,9.88
2023-01-25T23:31:54.757Z,11.90
2023-01-25T23:34:21.569Z,9.07
2023-01-25T23:36:48.314Z,9.93
2023-01-25T23:39:15.203Z,10.50
2023-01-25T23:41:41.947Z,9.07
2023-01-25T23:44:09.738Z,9.20
2023-01-25T23:46:36.859Z,9.73
2023-01-25T23:49:03.776Z,10.45
2023-01-25T23:51:30.496Z,10.15
2023-01-25T23:53:58.313Z,13.70
2023-01-25T23:56:25.490Z,11.35
2023-01-25T23:58:52.253Z,10.88
